sensor_id;sensor_type;location;lat;lon;timestamp;P1;durP1;ratioP1;P2;durP2;ratioP2
32152;SDS011;18656;50.580;11.392;2022-07-01T00:02:08;8.80;;;7.10;;
32152;SDS011;18656;50.580;11.392;2022-07-01T00:07:09;13.02;;;7.30;;
32152;SDS011;18656;50.580;11.392;2022-07-01T00:09:38;10.38;;;7.60;;
32152;SDS011;18656;50.580;11.392;2022-07-01T00:12:06;10.38;;;7.38;;
32152;SDS011;18656;50.580;11.392;2022-07-01T00:14:33;8.82;;;7.25;;
32152;SDS011;18656;50.580;11.392;2022-07-01T00:17:00;8.70;;;7.18;;
32152;SDS011;18656;50.580;11.392;2022-07-01T00:19:27;10.65;;;7.43;;
32152;SDS011;18656;50.580;11.392;2022-07-01T00:21:54;10.50;;;7.63;;
32152;SDS011;18656;50.580;11.392;2022-07-01T00:24:22;10.13;;;8.50;;
32152;SDS011;18656;50.580;11.392;2022-07-01T00:26:49;8.45;;;7.65;;
32152;SDS011;18656;50.580;11.392;2022-07-01T00:29:17;8.48;;;7.07;;
32152;SDS011;18656;50.580;11.392;2022-07-01T00:31:44;8.45;;;7.65;;
32152;SDS011;18656;50.580;11.392;2022-07-01T00:34:11;8.80;;;7.53;;
32152;SDS011;18656;50.580;11.392;2022-07-01T00:36:38;9.75;;;7.65;;
32152;SDS011;18656;50.580;11.392;2022-07-01T00:39:06;10.55;;;6.90;;
32152;SDS011;18656;50.580;11.392;2022-07-01T00:41:33;14.65;;;7.45;;
32152;SDS011;18656;50.580;11.392;2022-07-01T00:44:00;12.82;;;7.63;;
32152;SDS011;18656;50.580;11.392;2022-07-01T00:46:27;7.78;;;6.70;;
32152;SDS011;18656;50.580;11.392;2022-07-01T00:48:55;14.07;;;7.50;;
32152;SDS011;18656;50.580;11.392;2022-07-01T00:51:23;10.82;;;7.57;;
32152;SDS011;18656;50.580;11.392;2022-07-01T00:53:50;10.48;;;7.53;;
32152;SDS011;18656;50.580;11.392;2022-07-01T00:56:18;8.15;;;7.35;;
32152;SDS011;18656;50.580;11.392;2022-07-01T00:58:46;8.80;;;7.10;;
32152;SDS011;18656;50.580;11.392;2022-07-01T01:01:13;8.60;;;7.63;;
32152;SDS011;18656;50.580;11.392;2022-07-01T01:03:41;9.02;;;7.68;;
32152;SDS011;18656;50.580;11.392;2022-07-01T01:06:09;8.32;;;7.50;;
32152;SDS011;18656;50.580;11.392;2022-07-01T01:08:36;10.85;;;8.02;;
32152;SDS011;18656;50.580;11.392;2022-07-01T01:11:04;8.30;;;7.07;;
32152;SDS011;18656;50.580;11.392;2022-07-01T01:13:32;15.38;;;7.20;;
32152;SDS011;18656;50.580;11.392;2022-07-01T01:15:59;8.60;;;7.47;;
32152;SDS011;18656;50.580;11.392;2022-07-01T01:18:26;7.57;;;6.88;;
32152;SDS011;18656;50.580;11.392;2022-07-01T01:20:54;7.90;;;7.28;;
32152;SDS011;18656;50.580;11.392;2022-07-01T01:23:21;8.05;;;7.25;;
32152;SDS011;18656;50.580;11.392;2022-07-01T01:25:48;9.68;;;7.43;;
32152;SDS011;18656;50.580;11.392;2022-07-01T01:28:15;10.20;;;7.07;;
32152;SDS011;18656;50.580;11.392;2022-07-01T01:30:43;13.23;;;6.97;;
32152;SDS011;18656;50.580;11.392;2022-07-01T01:33:10;10.65;;;7.05;;
32152;SDS011;18656;50.580;11.392;2022-07-01T01:35:38;7.05;;;5.82;;
32152;SDS011;18656;50.580;11.392;2022-07-01T01:38:05;9.35;;;5.88;;
32152;SDS011;18656;50.580;11.392;2022-07-01T01:40:32;19.27;;;6.68;;
32152;SDS011;18656;50.580;11.392;2022-07-01T01:42:59;19.10;;;6.55;;
32152;SDS011;18656;50.580;11.392;2022-07-01T01:45:27;15.68;;;6.43;;
32152;SDS011;18656;50.580;11.392;2022-07-01T01:47:54;17.65;;;6.95;;
32152;SDS011;18656;50.580;11.392;2022-07-01T01:50:21;16.45;;;7.47;;
32152;SDS011;18656;50.580;11.392;2022-07-01T01:52:48;14.63;;;6.82;;
32152;SDS011;18656;50.580;11.392;2022-07-01T01:55:15;14.25;;;6.72;;
32152;SDS011;18656;50.580;11.392;2022-07-01T01:57:43;15.18;;;7.07;;
32152;SDS011;18656;50.580;11.392;2022-07-01T02:00:11;17.17;;;8.02;;
32152;SDS011;18656;50.580;11.392;2022-07-01T02:02:38;13.63;;;8.15;;
32152;SDS011;18656;50.580;11.392;2022-07-01T02:05:06;11.23;;;8.55;;
32152;SDS011;18656;50.580;11.392;2022-07-01T02:07:34;16.73;;;9.52;;
32152;SDS011;18656;50.580;11.392;2022-07-01T02:10:01;13.05;;;9.68;;
32152;SDS011;18656;50.580;11.392;2022-07-01T02:12:29;19.25;;;9.68;;
32152;SDS011;18656;50.580;11.392;2022-07-01T02:14:56;12.30;;;10.52;;
32152;SDS011;18656;50.580;11.392;2022-07-01T02:17:23;11.23;;;9.98;;
32152;SDS011;18656;50.580;11.392;2022-07-01T02:19:52;13.02;;;9.68;;
32152;SDS011;18656;50.580;11.392;2022-07-01T02:22:19;14.90;;;11.35;;
32152;SDS011;18656;50.580;11.392;2022-07-01T02:24:46;12.90;;;9.55;;
32152;SDS011;18656;50.580;11.392;2022-07-01T02:27:13;19.02;;;10.13;;
32152;SDS011;18656;50.580;11.392;2022-07-01T02:29:40;12.25;;;10.80;;
32152;SDS011;18656;50.580;11.392;2022-07-01T02:32:08;19.02;;;10.65;;
32152;SDS011;18656;50.580;11.392;2022-07-01T02:34:35;11.60;;;10.02;;
32152;SDS011;18656;50.580;11.392;2022-07-01T02:37:03;16.38;;;10.13;;
32152;SDS011;18656;50.580;11.392;2022-07-01T02:39:32;17.85;;;10.70;;
32152;SDS011;18656;50.580;11.392;2022-07-01T02:41:59;15.35;;;10.60;;
32152;SDS011;18656;50.580;11.392;2022-07-01T02:44:45;11.63;;;10.13;;
32152;SDS011;18656;50.580;11.392;2022-07-01T02:47:12;12.98;;;11.75;;
32152;SDS011;18656;50.580;11.392;2022-07-01T02:49:39;12.40;;;11.25;;
32152;SDS011;18656;50.580;11.392;2022-07-01T02:52:06;16.63;;;12.82;;
32152;SDS011;18656;50.580;11.392;2022-07-01T02:54:33;17.05;;;13.15;;
32152;SDS011;18656;50.580;11.392;2022-07-01T02:57:01;14.55;;;13.00;;
32152;SDS011;18656;50.580;11.392;2022-07-01T02:59:28;14.23;;;12.13;;
32152;SDS011;18656;50.580;11.392;2022-07-01T03:01:56;13.55;;;12.18;;
32152;SDS011;18656;50.580;11.392;2022-07-01T03:04:23;14.27;;;11.70;;
32152;SDS011;18656;50.580;11.392;2022-07-01T03:06:50;19.75;;;13.48;;
32152;SDS011;18656;50.580;11.392;2022-07-01T03:09:17;13.80;;;12.43;;
32152;SDS011;18656;50.580;11.392;2022-07-01T03:11:44;14.00;;;12.63;;
32152;SDS011;18656;50.580;11.392;2022-07-01T03:14:12;13.38;;;11.98;;
32152;SDS011;18656;50.580;11.392;2022-07-01T03:16:39;14.15;;;12.65;;
32152;SDS011;18656;50.580;11.392;2022-07-01T03:19:07;16.33;;;14.10;;
32152;SDS011;18656;50.580;11.392;2022-07-01T03:21:35;16.17;;;12.70;;
32152;SDS011;18656;50.580;11.392;2022-07-01T03:24:02;15.38;;;13.88;;
32152;SDS011;18656;50.580;11.392;2022-07-01T03:26:30;17.40;;;14.60;;
32152;SDS011;18656;50.580;11.392;2022-07-01T03:31:30;15.82;;;13.70;;
32152;SDS011;18656;50.580;11.392;2022-07-01T03:33:58;15.07;;;13.75;;
32152;SDS011;18656;50.580;11.392;2022-07-01T03:36:25;21.65;;;14.43;;
32152;SDS011;18656;50.580;11.392;2022-07-01T03:38:52;16.02;;;14.40;;
32152;SDS011;18656;50.580;11.392;2022-07-01T03:41:19;15.25;;;13.73;;
32152;SDS011;18656;50.580;11.392;2022-07-01T03:43:47;17.42;;;15.75;;
32152;SDS011;18656;50.580;11.392;2022-07-01T03:46:14;16.83;;;15.00;;
32152;SDS011;18656;50.580;11.392;2022-07-01T03:48:41;16.38;;;14.77;;
32152;SDS011;18656;50.580;11.392;2022-07-01T03:51:08;20.85;;;18.85;;
32152;SDS011;18656;50.580;11.392;2022-07-01T03:53:35;24.67;;;19.40;;
32152;SDS011;18656;50.580;11.392;2022-07-01T03:56:21;26.63;;;19.20;;
32152;SDS011;18656;50.580;11.392;2022-07-01T03:58:48;19.00;;;17.17;;
32152;SDS011;18656;50.580;11.392;2022-07-01T04:01:16;21.95;;;19.23;;
32152;SDS011;18656;50.580;11.392;2022-07-01T04:03:43;22.40;;;20.05;;
32152;SDS011;18656;50.580;11.392;2022-07-01T04:06:10;19.42;;;17.52;;
32152;SDS011;18656;50.580;11.392;2022-07-01T04:08:37;18.45;;;16.55;;
32152;SDS011;18656;50.580;11.392;2022-07-01T04:11:05;21.33;;;19.30;;
32152;SDS011;18656;50.580;11.392;2022-07-01T04:13:35;16.92;;;15.35;;
32152;SDS011;18656;50.580;11.392;2022-07-01T04:16:06;20.35;;;18.27;;
32152;SDS011;18656;50.580;11.392;2022-07-01T04:18:33;15.35;;;13.77;;
32152;SDS011;18656;50.580;11.392;2022-07-01T04:21:01;17.70;;;14.90;;
32152;SDS011;18656;50.580;11.392;2022-07-01T04:23:47;19.63;;;17.63;;
32152;SDS011;18656;50.580;11.392;2022-07-01T04:26:14;19.65;;;17.60;;
32152;SDS011;18656;50.580;11.392;2022-07-01T04:29:02;18.40;;;15.95;;
32152;SDS011;18656;50.580;11.392;2022-07-01T04:31:30;17.00;;;15.35;;
32152;SDS011;18656;50.580;11.392;2022-07-01T04:33:57;17.58;;;15.65;;
32152;SDS011;18656;50.580;11.392;2022-07-01T04:36:24;17.88;;;16.27;;
32152;SDS011;18656;50.580;11.392;2022-07-01T04:38:52;18.00;;;16.35;;
32152;SDS011;18656;50.580;11.392;2022-07-01T04:41:19;17.17;;;15.38;;
32152;SDS011;18656;50.580;11.392;2022-07-01T04:44:05;15.52;;;13.95;;
32152;SDS011;18656;50.580;11.392;2022-07-01T04:46:32;13.23;;;12.02;;
32152;SDS011;18656;50.580;11.392;2022-07-01T04:49:02;14.43;;;13.02;;
32152;SDS011;18656;50.580;11.392;2022-07-01T04:51:29;13.77;;;12.32;;
32152;SDS011;18656;50.580;11.392;2022-07-01T04:53:57;16.95;;;14.23;;
32152;SDS011;18656;50.580;11.392;2022-07-01T04:56:27;11.82;;;10.75;;
32152;SDS011;18656;50.580;11.392;2022-07-01T04:58:55;12.50;;;11.13;;
32152;SDS011;18656;50.580;11.392;2022-07-01T05:01:27;10.82;;;9.98;;
32152;SDS011;18656;50.580;11.392;2022-07-01T05:03:57;10.55;;;9.60;;
32152;SDS011;18656;50.580;11.392;2022-07-01T05:06:37;10.20;;;9.30;;
32152;SDS011;18656;50.580;11.392;2022-07-01T05:09:07;10.63;;;9.55;;
32152;SDS011;18656;50.580;11.392;2022-07-01T05:11:37;9.18;;;8.38;;
32152;SDS011;18656;50.580;11.392;2022-07-01T05:14:05;7.70;;;7.10;;
32152;SDS011;18656;50.580;11.392;2022-07-01T05:16:33;7.13;;;6.63;;
32152;SDS011;18656;50.580;11.392;2022-07-01T05:19:01;6.30;;;5.70;;
32152;SDS011;18656;50.580;11.392;2022-07-01T05:21:47;6.35;;;5.43;;
32152;SDS011;18656;50.580;11.392;2022-07-01T05:24:26;6.22;;;5.40;;
32152;SDS011;18656;50.580;11.392;2022-07-01T05:26:57;5.55;;;5.15;;
32152;SDS011;18656;50.580;11.392;2022-07-01T05:29:24;7.38;;;4.75;;
32152;SDS011;18656;50.580;11.392;2022-07-01T05:31:56;9.15;;;6.97;;
32152;SDS011;18656;50.580;11.392;2022-07-01T05:34:24;7.32;;;6.78;;
32152;SDS011;18656;50.580;11.392;2022-07-01T05:36:51;8.10;;;7.30;;
32152;SDS011;18656;50.580;11.392;2022-07-01T05:39:21;11.30;;;8.45;;
32152;SDS011;18656;50.580;11.392;2022-07-01T05:41:48;9.50;;;7.35;;
32152;SDS011;18656;50.580;11.392;2022-07-01T05:44:15;9.55;;;7.90;;
32152;SDS011;18656;50.580;11.392;2022-07-01T05:46:50;9.65;;;8.85;;
32152;SDS011;18656;50.580;11.392;2022-07-01T05:49:19;9.70;;;8.80;;
32152;SDS011;18656;50.580;11.392;2022-07-01T05:51:51;10.50;;;9.13;;
32152;SDS011;18656;50.580;11.392;2022-07-01T05:54:18;13.63;;;9.45;;
32152;SDS011;18656;50.580;11.392;2022-07-01T05:56:45;11.27;;;9.27;;
32152;SDS011;18656;50.580;11.392;2022-07-01T05:59:13;10.93;;;9.75;;
32152;SDS011;18656;50.580;11.392;2022-07-01T06:01:43;10.73;;;9.77;;
32152;SDS011;18656;50.580;11.392;2022-07-01T06:04:12;10.60;;;9.57;;
32152;SDS011;18656;50.580;11.392;2022-07-01T06:06:39;11.30;;;9.63;;
32152;SDS011;18656;50.580;11.392;2022-07-01T06:09:06;10.88;;;9.77;;
32152;SDS011;18656;50.580;11.392;2022-07-01T06:11:34;13.52;;;12.05;;
32152;SDS011;18656;50.580;11.392;2022-07-01T06:14:01;14.60;;;10.90;;
32152;SDS011;18656;50.580;11.392;2022-07-01T06:16:28;12.00;;;10.82;;
32152;SDS011;18656;50.580;11.392;2022-07-01T06:18:57;15.43;;;12.82;;
32152;SDS011;18656;50.580;11.392;2022-07-01T06:21:24;13.73;;;12.20;;
32152;SDS011;18656;50.580;11.392;2022-07-01T06:23:54;12.93;;;11.77;;
32152;SDS011;18656;50.580;11.392;2022-07-01T06:26:24;12.93;;;11.55;;
32152;SDS011;18656;50.580;11.392;2022-07-01T06:28:53;25.02;;;16.30;;
32152;SDS011;18656;50.580;11.392;2022-07-01T06:31:25;20.75;;;14.13;;
32152;SDS011;18656;50.580;11.392;2022-07-01T06:33:53;21.45;;;16.05;;
32152;SDS011;18656;50.580;11.392;2022-07-01T06:36:20;22.80;;;15.73;;
32152;SDS011;18656;50.580;11.392;2022-07-01T06:38:47;17.05;;;14.95;;
32152;SDS011;18656;50.580;11.392;2022-07-01T06:41:15;15.95;;;13.57;;
32152;SDS011;18656;50.580;11.392;2022-07-01T06:43:58;16.05;;;12.77;;
32152;SDS011;18656;50.580;11.392;2022-07-01T06:46:26;13.88;;;12.45;;
32152;SDS011;18656;50.580;11.392;2022-07-01T06:48:57;13.55;;;12.35;;
32152;SDS011;18656;50.580;11.392;2022-07-01T06:51:27;20.27;;;13.65;;
32152;SDS011;18656;50.580;11.392;2022-07-01T06:53:55;19.73;;;14.85;;
32152;SDS011;18656;50.580;11.392;2022-07-01T06:56:22;20.30;;;15.25;;
32152;SDS011;18656;50.580;11.392;2022-07-01T06:58:49;19.40;;;15.38;;
32152;SDS011;18656;50.580;11.392;2022-07-01T07:01:21;21.92;;;16.05;;
32152;SDS011;18656;50.580;11.392;2022-07-01T07:03:49;21.58;;;18.63;;
32152;SDS011;18656;50.580;11.392;2022-07-01T07:06:17;22.10;;;19.05;;
32152;SDS011;18656;50.580;11.392;2022-07-01T07:08:44;17.50;;;15.95;;
32152;SDS011;18656;50.580;11.392;2022-07-01T07:11:11;17.77;;;15.98;;
32152;SDS011;18656;50.580;11.392;2022-07-01T07:13:42;24.10;;;17.38;;
32152;SDS011;18656;50.580;11.392;2022-07-01T07:16:09;26.38;;;20.50;;
32152;SDS011;18656;50.580;11.392;2022-07-01T07:18:41;21.50;;;16.80;;
32152;SDS011;18656;50.580;11.392;2022-07-01T07:21:13;19.58;;;16.55;;
32152;SDS011;18656;50.580;11.392;2022-07-01T07:23:40;20.10;;;16.65;;
32152;SDS011;18656;50.580;11.392;2022-07-01T07:26:09;19.02;;;16.70;;
32152;SDS011;18656;50.580;11.392;2022-07-01T07:28:36;18.98;;;16.00;;
32152;SDS011;18656;50.580;11.392;2022-07-01T07:31:03;21.13;;;17.63;;
32152;SDS011;18656;50.580;11.392;2022-07-01T07:33:31;20.80;;;17.58;;
32152;SDS011;18656;50.580;11.392;2022-07-01T07:35:58;18.83;;;16.35;;
32152;SDS011;18656;50.580;11.392;2022-07-01T07:38:25;21.95;;;17.95;;
32152;SDS011;18656;50.580;11.392;2022-07-01T07:40:53;20.02;;;17.95;;
32152;SDS011;18656;50.580;11.392;2022-07-01T07:43:20;21.65;;;17.98;;
32152;SDS011;18656;50.580;11.392;2022-07-01T07:45:47;21.77;;;17.55;;
32152;SDS011;18656;50.580;11.392;2022-07-01T07:48:14;22.42;;;18.20;;
32152;SDS011;18656;50.580;11.392;2022-07-01T07:50:42;21.10;;;17.58;;
32152;SDS011;18656;50.580;11.392;2022-07-01T07:53:09;19.05;;;17.10;;
32152;SDS011;18656;50.580;11.392;2022-07-01T07:55:41;19.92;;;17.95;;
32152;SDS011;18656;50.580;11.392;2022-07-01T07:58:08;20.08;;;17.77;;
32152;SDS011;18656;50.580;11.392;2022-07-01T08:00:35;17.83;;;15.43;;
32152;SDS011;18656;50.580;11.392;2022-07-01T08:03:05;22.08;;;15.60;;
32152;SDS011;18656;50.580;11.392;2022-07-01T08:05:37;25.30;;;16.88;;
32152;SDS011;18656;50.580;11.392;2022-07-01T08:08:05;20.80;;;17.20;;
32152;SDS011;18656;50.580;11.392;2022-07-01T08:10:32;21.17;;;16.27;;
32152;SDS011;18656;50.580;11.392;2022-07-01T08:13:04;20.05;;;17.75;;
32152;SDS011;18656;50.580;11.392;2022-07-01T08:15:33;21.20;;;17.77;;
32152;SDS011;18656;50.580;11.392;2022-07-01T08:18:01;21.50;;;17.65;;
32152;SDS011;18656;50.580;11.392;2022-07-01T08:20:28;16.52;;;14.82;;
32152;SDS011;18656;50.580;11.392;2022-07-01T08:22:55;20.40;;;18.13;;
32152;SDS011;18656;50.580;11.392;2022-07-01T08:25:22;18.73;;;16.73;;
32152;SDS011;18656;50.580;11.392;2022-07-01T08:27:50;20.08;;;18.05;;
32152;SDS011;18656;50.580;11.392;2022-07-01T08:30:17;18.88;;;15.65;;
32152;SDS011;18656;50.580;11.392;2022-07-01T08:32:44;16.60;;;14.90;;
32152;SDS011;18656;50.580;11.392;2022-07-01T08:35:14;15.23;;;13.57;;
32152;SDS011;18656;50.580;11.392;2022-07-01T08:37:41;15.40;;;13.90;;
32152;SDS011;18656;50.580;11.392;2022-07-01T08:40:09;14.00;;;12.63;;
32152;SDS011;18656;50.580;11.392;2022-07-01T08:42:38;13.55;;;12.25;;
32152;SDS011;18656;50.580;11.392;2022-07-01T08:45:06;13.60;;;12.25;;
32152;SDS011;18656;50.580;11.392;2022-07-01T08:47:33;11.57;;;10.48;;
32152;SDS011;18656;50.580;11.392;2022-07-01T08:50:00;12.57;;;11.48;;
32152;SDS011;18656;50.580;11.392;2022-07-01T08:52:28;13.00;;;11.90;;
32152;SDS011;18656;50.580;11.392;2022-07-01T08:54:56;13.48;;;12.27;;
32152;SDS011;18656;50.580;11.392;2022-07-01T08:57:24;12.45;;;11.35;;
32152;SDS011;18656;50.580;11.392;2022-07-01T09:00:03;13.50;;;12.10;;
32152;SDS011;18656;50.580;11.392;2022-07-01T09:02:53;15.00;;;11.20;;
32152;SDS011;18656;50.580;11.392;2022-07-01T09:05:26;12.68;;;11.45;;
32152;SDS011;18656;50.580;11.392;2022-07-01T09:07:55;11.48;;;10.38;;
32152;SDS011;18656;50.580;11.392;2022-07-01T09:10:23;12.05;;;10.85;;
32152;SDS011;18656;50.580;11.392;2022-07-01T09:12:50;10.77;;;9.75;;
32152;SDS011;18656;50.580;11.392;2022-07-01T09:15:19;11.05;;;10.15;;
32152;SDS011;18656;50.580;11.392;2022-07-01T09:17:46;9.52;;;8.75;;
32152;SDS011;18656;50.580;11.392;2022-07-01T09:20:31;11.07;;;9.93;;
32152;SDS011;18656;50.580;11.392;2022-07-01T09:23:02;10.65;;;9.70;;
32152;SDS011;18656;50.580;11.392;2022-07-01T09:25:31;11.13;;;10.10;;
32152;SDS011;18656;50.580;11.392;2022-07-01T09:28:08;10.02;;;9.02;;
32152;SDS011;18656;50.580;11.392;2022-07-01T09:30:36;9.18;;;8.35;;
32152;SDS011;18656;50.580;11.392;2022-07-01T09:33:13;9.75;;;8.93;;
32152;SDS011;18656;50.580;11.392;2022-07-01T09:35:41;11.48;;;10.32;;
32152;SDS011;18656;50.580;11.392;2022-07-01T09:38:16;10.40;;;9.50;;
32152;SDS011;18656;50.580;11.392;2022-07-01T09:41:02;11.32;;;10.32;;
32152;SDS011;18656;50.580;11.392;2022-07-01T09:46:06;9.73;;;8.93;;
32152;SDS011;18656;50.580;11.392;2022-07-01T09:51:05;8.85;;;8.15;;
32152;SDS011;18656;50.580;11.392;2022-07-01T09:53:40;8.20;;;7.50;;
32152;SDS011;18656;50.580;11.392;2022-07-01T09:56:07;8.88;;;8.00;;
32152;SDS011;18656;50.580;11.392;2022-07-01T09:58:35;8.10;;;7.30;;
32152;SDS011;18656;50.580;11.392;2022-07-01T10:01:05;8.23;;;7.63;;
32152;SDS011;18656;50.580;11.392;2022-07-01T10:03:36;8.20;;;7.50;;
32152;SDS011;18656;50.580;11.392;2022-07-01T10:08:58;4.65;;;4.45;;
32152;SDS011;18656;50.580;11.392;2022-07-01T10:11:39;6.40;;;4.07;;
32152;SDS011;18656;50.580;11.392;2022-07-01T10:14:10;2.85;;;2.75;;
32152;SDS011;18656;50.580;11.392;2022-07-01T10:16:41;8.38;;;2.72;;
32152;SDS011;18656;50.580;11.392;2022-07-01T10:21:47;1.60;;;1.48;;
32152;SDS011;18656;50.580;11.392;2022-07-01T10:24:15;1.40;;;1.30;;
32152;SDS011;18656;50.580;11.392;2022-07-01T10:26:42;1.50;;;1.15;;
32152;SDS011;18656;50.580;11.392;2022-07-01T10:32:07;1.63;;;1.52;;
32152;SDS011;18656;50.580;11.392;2022-07-01T10:34:36;2.53;;;1.50;;
32152;SDS011;18656;50.580;11.392;2022-07-01T10:37:11;1.70;;;1.60;;
32152;SDS011;18656;50.580;11.392;2022-07-01T10:39:55;1.42;;;1.33;;
32152;SDS011;18656;50.580;11.392;2022-07-01T10:42:32;1.48;;;1.38;;
32152;SDS011;18656;50.580;11.392;2022-07-01T10:47:29;2.17;;;1.50;;
32152;SDS011;18656;50.580;11.392;2022-07-01T10:50:03;1.73;;;1.70;;
32152;SDS011;18656;50.580;11.392;2022-07-01T10:52:33;1.55;;;1.50;;
32152;SDS011;18656;50.580;11.392;2022-07-01T10:55:01;3.33;;;1.70;;
32152;SDS011;18656;50.580;11.392;2022-07-01T10:57:33;1.30;;;1.20;;
32152;SDS011;18656;50.580;11.392;2022-07-01T11:02:35;1.80;;;1.70;;
32152;SDS011;18656;50.580;11.392;2022-07-01T11:05:10;2.30;;;1.80;;
32152;SDS011;18656;50.580;11.392;2022-07-01T11:07:44;2.25;;;1.38;;
32152;SDS011;18656;50.580;11.392;2022-07-01T11:10:14;1.50;;;0.80;;
32152;SDS011;18656;50.580;11.392;2022-07-01T11:12:42;0.85;;;0.85;;
32152;SDS011;18656;50.580;11.392;2022-07-01T11:15:10;0.90;;;0.90;;
32152;SDS011;18656;50.580;11.392;2022-07-01T11:17:42;1.00;;;1.00;;
32152;SDS011;18656;50.580;11.392;2022-07-01T11:20:10;1.23;;;0.90;;
32152;SDS011;18656;50.580;11.392;2022-07-01T11:22:37;2.50;;;1.23;;
32152;SDS011;18656;50.580;11.392;2022-07-01T11:25:05;1.40;;;1.30;;
32152;SDS011;18656;50.580;11.392;2022-07-01T11:27:33;1.00;;;1.00;;
32152;SDS011;18656;50.580;11.392;2022-07-01T11:30:05;2.05;;;1.25;;
32152;SDS011;18656;50.580;11.392;2022-07-01T11:32:34;1.75;;;1.10;;
32152;SDS011;18656;50.580;11.392;2022-07-01T11:35:02;1.00;;;0.90;;
32152;SDS011;18656;50.580;11.392;2022-07-01T11:37:50;1.55;;;1.15;;
32152;SDS011;18656;50.580;11.392;2022-07-01T11:40:36;1.00;;;1.00;;
32152;SDS011;18656;50.580;11.392;2022-07-01T11:43:17;2.15;;;1.08;;
32152;SDS011;18656;50.580;11.392;2022-07-01T11:45:44;2.47;;;1.17;;
32152;SDS011;18656;50.580;11.392;2022-07-01T11:48:11;1.13;;;1.13;;
32152;SDS011;18656;50.580;11.392;2022-07-01T11:50:38;1.10;;;1.10;;
32152;SDS011;18656;50.580;11.392;2022-07-01T11:53:07;1.90;;;1.30;;
32152;SDS011;18656;50.580;11.392;2022-07-01T11:55:34;2.38;;;1.50;;
32152;SDS011;18656;50.580;11.392;2022-07-01T11:58:03;3.80;;;1.52;;
32152;SDS011;18656;50.580;11.392;2022-07-01T12:00:33;1.73;;;1.48;;
32152;SDS011;18656;50.580;11.392;2022-07-01T12:03:00;1.30;;;1.30;;
32152;SDS011;18656;50.580;11.392;2022-07-01T12:05:28;1.75;;;1.65;;
32152;SDS011;18656;50.580;11.392;2022-07-01T12:08:03;1.70;;;1.60;;
32152;SDS011;18656;50.580;11.392;2022-07-01T12:10:30;2.47;;;1.80;;
32152;SDS011;18656;50.580;11.392;2022-07-01T12:12:57;1.98;;;1.88;;
32152;SDS011;18656;50.580;11.392;2022-07-01T12:15:25;1.92;;;1.85;;
32152;SDS011;18656;50.580;11.392;2022-07-01T12:18:04;1.73;;;1.73;;
32152;SDS011;18656;50.580;11.392;2022-07-01T12:20:31;5.60;;;2.40;;
32152;SDS011;18656;50.580;11.392;2022-07-01T12:23:14;2.05;;;1.80;;
32152;SDS011;18656;50.580;11.392;2022-07-01T12:25:46;1.90;;;1.80;;
32152;SDS011;18656;50.580;11.392;2022-07-01T12:28:26;2.00;;;1.90;;
32152;SDS011;18656;50.580;11.392;2022-07-01T12:31:07;1.77;;;1.77;;
32152;SDS011;18656;50.580;11.392;2022-07-01T12:33:35;1.90;;;1.80;;
32152;SDS011;18656;50.580;11.392;2022-07-01T12:36:03;1.58;;;1.58;;
32152;SDS011;18656;50.580;11.392;2022-07-01T12:38:31;2.08;;;1.98;;
32152;SDS011;18656;50.580;11.392;2022-07-01T12:40:58;6.85;;;2.28;;
32152;SDS011;18656;50.580;11.392;2022-07-01T12:43:30;2.17;;;2.08;;
32152;SDS011;18656;50.580;11.392;2022-07-01T12:46:00;5.28;;;2.53;;
32152;SDS011;18656;50.580;11.392;2022-07-01T12:48:28;2.15;;;2.05;;
32152;SDS011;18656;50.580;11.392;2022-07-01T12:50:57;2.42;;;2.22;;
32152;SDS011;18656;50.580;11.392;2022-07-01T12:53:25;1.90;;;1.80;;
32152;SDS011;18656;50.580;11.392;2022-07-01T12:55:55;1.90;;;1.80;;
32152;SDS011;18656;50.580;11.392;2022-07-01T12:58:26;3.47;;;2.00;;
32152;SDS011;18656;50.580;11.392;2022-07-01T13:00:54;1.83;;;1.80;;
32152;SDS011;18656;50.580;11.392;2022-07-01T13:03:24;2.13;;;2.03;;
32152;SDS011;18656;50.580;11.392;2022-07-01T13:05:51;2.92;;;1.90;;
32152;SDS011;18656;50.580;11.392;2022-07-01T13:08:19;2.88;;;2.15;;
32152;SDS011;18656;50.580;11.392;2022-07-01T13:10:47;2.75;;;1.92;;
32152;SDS011;18656;50.580;11.392;2022-07-01T13:13:14;2.25;;;2.15;;
32152;SDS011;18656;50.580;11.392;2022-07-01T13:15:43;2.20;;;2.10;;
32152;SDS011;18656;50.580;11.392;2022-07-01T13:18:11;1.83;;;1.80;;
32152;SDS011;18656;50.580;11.392;2022-07-01T13:20:41;2.40;;;2.20;;
32152;SDS011;18656;50.580;11.392;2022-07-01T13:23:08;9.20;;;2.22;;
32152;SDS011;18656;50.580;11.392;2022-07-01T13:25:35;2.40;;;2.22;;
32152;SDS011;18656;50.580;11.392;2022-07-01T13:28:03;4.32;;;2.35;;
32152;SDS011;18656;50.580;11.392;2022-07-01T13:30:30;2.25;;;2.08;;
32152;SDS011;18656;50.580;11.392;2022-07-01T13:32:57;2.78;;;1.98;;
32152;SDS011;18656;50.580;11.392;2022-07-01T13:35:25;2.67;;;2.47;;
32152;SDS011;18656;50.580;11.392;2022-07-01T13:37:52;5.13;;;2.75;;
32152;SDS011;18656;50.580;11.392;2022-07-01T13:40:19;2.97;;;2.38;;
32152;SDS011;18656;50.580;11.392;2022-07-01T13:42:48;2.30;;;2.10;;
32152;SDS011;18656;50.580;11.392;2022-07-01T13:45:15;2.50;;;2.30;;
32152;SDS011;18656;50.580;11.392;2022-07-01T13:47:42;2.50;;;2.30;;
32152;SDS011;18656;50.580;11.392;2022-07-01T13:50:09;3.22;;;2.28;;
32152;SDS011;18656;50.580;11.392;2022-07-01T13:52:36;5.82;;;2.60;;
32152;SDS011;18656;50.580;11.392;2022-07-01T13:55:10;2.60;;;2.50;;
32152;SDS011;18656;50.580;11.392;2022-07-01T13:57:37;2.00;;;1.90;;
32152;SDS011;18656;50.580;11.392;2022-07-01T14:00:04;2.65;;;2.25;;
32152;SDS011;18656;50.580;11.392;2022-07-01T14:02:34;3.35;;;2.40;;
32152;SDS011;18656;50.580;11.392;2022-07-01T14:05:01;2.85;;;2.22;;
32152;SDS011;18656;50.580;11.392;2022-07-01T14:07:29;4.93;;;2.20;;
32152;SDS011;18656;50.580;11.392;2022-07-01T14:09:56;2.40;;;2.30;;
32152;SDS011;18656;50.580;11.392;2022-07-01T14:12:24;3.85;;;3.00;;
32152;SDS011;18656;50.580;11.392;2022-07-01T14:14:56;2.95;;;2.65;;
32152;SDS011;18656;50.580;11.392;2022-07-01T14:17:24;3.20;;;2.72;;
32152;SDS011;18656;50.580;11.392;2022-07-01T14:19:52;3.20;;;3.00;;
32152;SDS011;18656;50.580;11.392;2022-07-01T14:22:19;3.42;;;2.58;;
32152;SDS011;18656;50.580;11.392;2022-07-01T14:24:46;2.88;;;2.67;;
32152;SDS011;18656;50.580;11.392;2022-07-01T14:27:13;2.95;;;2.55;;
32152;SDS011;18656;50.580;11.392;2022-07-01T14:29:40;2.63;;;2.13;;
32152;SDS011;18656;50.580;11.392;2022-07-01T14:32:08;3.35;;;2.78;;
32152;SDS011;18656;50.580;11.392;2022-07-01T14:34:35;3.40;;;3.10;;
32152;SDS011;18656;50.580;11.392;2022-07-01T14:37:03;3.38;;;3.17;;
32152;SDS011;18656;50.580;11.392;2022-07-01T14:39:30;3.40;;;3.08;;
32152;SDS011;18656;50.580;11.392;2022-07-01T14:41:57;3.58;;;3.25;;
32152;SDS011;18656;50.580;11.392;2022-07-01T14:44:24;3.50;;;3.30;;
32152;SDS011;18656;50.580;11.392;2022-07-01T14:46:51;3.65;;;3.35;;
32152;SDS011;18656;50.580;11.392;2022-07-01T14:49:19;3.83;;;3.35;;
32152;SDS011;18656;50.580;11.392;2022-07-01T14:51:47;4.75;;;3.65;;
32152;SDS011;18656;50.580;11.392;2022-07-01T14:54:15;3.60;;;3.40;;
32152;SDS011;18656;50.580;11.392;2022-07-01T14:56:43;4.32;;;3.92;;
32152;SDS011;18656;50.580;11.392;2022-07-01T14:59:10;4.00;;;3.70;;